createdAt,value
2022-08-21T05:29:34.309Z,2.83
2022-08-21T05:34:08.402Z,2.93
2022-08-21T06:04:25.568Z,2.80
2022-08-21T06:07:09.863Z,2.80
2022-08-21T06:09:48.221Z,3.30
2022-08-21T06:13:08.115Z,2.60
2022-08-21T06:15:55.152Z,2.50
2022-08-21T06:19:11.077Z,2.90
2022-08-21T06:21:53.923Z,2.70
2022-08-21T06:25:02.406Z,2.73
2022-08-21T08:04:07.237Z,2.87
2022-08-21T08:25:13.550Z,3.10
2022-08-21T08:32:44.581Z,3.03
2022-08-21T08:36:12.648Z,3.10
2022-08-21T08:40:00.139Z,3.00
2022-08-21T08:43:01.922Z,3.37
2022-08-21T08:46:57.541Z,3.10
2022-08-21T09:44:31.568Z,3.13
2022-08-21T09:47:01.173Z,3.10
2022-08-21T09:49:31.424Z,3.03
2022-08-21T09:52:01.471Z,3.07
2022-08-21T09:54:35.410Z,3.27
2022-08-21T09:57:34.060Z,2.87
2022-08-21T10:00:17.288Z,3.20
2022-08-21T10:02:45.604Z,2.37
2022-08-21T10:05:20.268Z,3.67
2022-08-21T10:07:48.733Z,3.40
2022-08-21T10:10:20.650Z,3.43
2022-08-21T10:12:56.872Z,3.17
2022-08-21T10:15:37.416Z,3.20
2022-08-21T10:18:15.594Z,3.00
2022-08-21T10:20:48.475Z,5.03
2022-08-21T10:23:36.029Z,3.57
2022-08-21T10:26:14.232Z,3.20
2022-08-21T10:28:55.076Z,3.27
2022-08-21T10:31:47.637Z,2.70
2022-08-21T10:34:35.085Z,3.20
2022-08-21T10:37:16.385Z,2.87
2022-08-21T10:39:54.509Z,3.00
2022-08-21T10:42:38.204Z,3.00
2022-08-21T10:45:17.762Z,3.07
2022-08-21T10:47:58.176Z,3.40
2022-08-21T10:58:27.218Z,3.20
2022-08-21T11:06:11.137Z,3.10
2022-08-21T11:10:04.172Z,2.87
2022-08-21T11:18:18.199Z,2.87
2022-08-21T11:21:59.375Z,3.37
2022-08-21T11:47:04.585Z,3.10
2022-08-21T11:55:03.431Z,3.13
2022-08-21T13:13:32.280Z,2.50
2022-08-21T13:17:28.439Z,2.40
2022-08-21T13:22:38.424Z,2.78
2022-08-21T13:28:06.776Z,2.28
2022-08-21T13:30:41.113Z,2.42
2022-08-21T13:35:35.481Z,2.38
2022-08-21T13:44:19.904Z,2.60
2022-08-21T13:57:03.806Z,2.40
2022-08-21T14:01:32.591Z,2.80
2022-08-21T14:05:57.737Z,2.72
2022-08-21T14:09:13.860Z,2.42
2022-08-21T14:11:45.828Z,2.25
2022-08-21T14:14:44.148Z,2.13
2022-08-21T14:17:33.489Z,2.35
2022-08-21T14:39:22.322Z,2.50
2022-08-21T14:42:14.647Z,2.47
2022-08-21T14:45:16.769Z,2.33
2022-08-21T14:48:18.150Z,2.08
2022-08-21T14:51:00.381Z,2.30
2022-08-21T14:53:40.020Z,2.50
2022-08-21T14:56:30.627Z,2.22
2022-08-21T14:59:33.818Z,2.85
2022-08-21T15:02:09.132Z,2.65
2022-08-21T15:04:44.149Z,2.40
2022-08-21T15:07:24.012Z,2.13
2022-08-21T15:09:53.299Z,2.20
2022-08-21T15:12:40.644Z,2.40
2022-08-21T17:47:47.227Z,1.97
2022-08-21T18:03:20.739Z,2.40
2022-08-21T18:06:38.693Z,2.47
2022-08-21T18:10:06.242Z,2.50
2022-08-21T18:13:36.634Z,2.30
2022-08-21T18:17:24.869Z,2.60
2022-08-21T18:21:24.413Z,2.20
2022-08-21T18:24:53.652Z,2.10
2022-08-21T18:28:20.206Z,2.37
2022-08-21T18:31:59.992Z,2.40
2022-08-21T18:35:12.831Z,2.10
2022-08-21T18:38:42.123Z,2.40
2022-08-21T18:42:07.835Z,2.10
2022-08-21T18:45:24.237Z,2.27
2022-08-21T18:51:35.874Z,2.50
2022-08-21T18:55:28.935Z,2.47
2022-08-21T18:58:24.986Z,2.63
2022-08-21T19:01:54.875Z,2.50
2022-08-21T19:17:29.404Z,2.63
2022-08-21T19:55:29.777Z,2.80
2022-08-21T20:07:28.100Z,2.90
2022-08-21T20:11:27.725Z,2.73
2022-08-21T20:49:31.674Z,2.70
2022-08-21T20:52:44.034Z,2.93
2022-08-21T21:00:59.390Z,2.77
2022-08-21T21:22:21.288Z,2.80
2022-08-21T21:25:41.542Z,2.60
